createdAt,value
2023-03-23T00:00:26.852Z,1.89
2023-03-23T00:04:26.990Z,1.81
2023-03-23T00:08:27.131Z,1.52
2023-03-23T00:12:32.097Z,1.53
2023-03-23T00:16:28.224Z,1.67
2023-03-23T00:20:27.199Z,1.37
2023-03-23T00:24:27.549Z,1.96
2023-03-23T00:28:27.253Z,1.68
2023-03-23T00:32:27.429Z,1.98
2023-03-23T00:36:27.517Z,1.84
2023-03-23T00:40:27.673Z,1.57
2023-03-23T00:44:28.020Z,1.72
2023-03-23T00:48:27.865Z,2.11
2023-03-23T00:52:28.546Z,1.74
2023-03-23T00:56:28.164Z,2.01
2023-03-23T01:00:28.313Z,1.68
2023-03-23T01:04:28.441Z,1.34
2023-03-23T01:08:28.550Z,1.95
2023-03-23T01:12:28.745Z,1.61
2023-03-23T01:16:28.844Z,1.88
2023-03-23T01:20:28.972Z,1.40
2023-03-23T01:24:29.582Z,1.53
2023-03-23T01:28:29.315Z,1.71
2023-03-23T01:32:29.319Z,1.77
2023-03-23T01:36:29.682Z,1.32
2023-03-23T01:40:29.627Z,1.64
2023-03-23T01:44:29.709Z,1.85
2023-03-23T01:48:29.846Z,1.81
2023-03-23T01:52:30.026Z,1.38
2023-03-23T01:56:30.167Z,1.49
2023-03-23T02:00:30.288Z,1.40
2023-03-23T02:04:30.424Z,1.62
2023-03-23T02:08:30.554Z,1.73
2023-03-23T02:12:30.756Z,1.37
2023-03-23T02:16:31.104Z,1.37
2023-03-23T02:20:31.096Z,1.68
2023-03-23T02:24:31.591Z,1.71
2023-03-23T02:28:31.370Z,1.89
2023-03-23T02:32:31.616Z,1.71
2023-03-23T02:36:31.653Z,2.23
2023-03-23T02:40:31.767Z,1.60
2023-03-23T02:44:31.977Z,1.19
2023-03-23T02:48:32.122Z,1.35
2023-03-23T02:52:32.266Z,1.60
2023-03-23T02:56:32.400Z,1.34
2023-03-23T03:00:32.608Z,1.64
2023-03-23T03:04:32.769Z,1.31
2023-03-23T03:08:32.991Z,1.65
2023-03-23T03:12:33.107Z,1.79
2023-03-23T03:16:33.340Z,1.58
2023-03-23T03:20:33.686Z,1.67
2023-03-23T03:24:33.809Z,1.72
2023-03-23T03:28:34.020Z,1.69
2023-03-23T03:32:34.172Z,1.47
2023-03-23T03:36:34.350Z,1.74
2023-03-23T03:40:34.509Z,1.54
2023-03-23T03:44:34.721Z,1.62
2023-03-23T03:48:34.905Z,2.03
2023-03-23T03:52:35.125Z,1.86
2023-03-23T03:56:35.384Z,1.62
2023-03-23T04:00:36.096Z,1.66
2023-03-23T04:04:35.301Z,1.62
2023-03-23T04:08:35.249Z,1.89
2023-03-23T04:12:35.215Z,1.56
2023-03-23T04:16:35.201Z,1.24
2023-03-23T04:20:35.310Z,1.69
2023-03-23T04:24:56.189Z,1.59
2023-03-23T04:28:36.251Z,1.59
2023-03-23T04:32:35.629Z,1.53
2023-03-23T04:36:56.186Z,1.51
2023-03-23T04:40:36.115Z,1.29
2023-03-23T04:44:35.106Z,1.63
2023-03-23T04:48:35.088Z,1.43
2023-03-23T04:52:35.067Z,1.58
2023-03-23T04:56:35.044Z,1.66
2023-03-23T05:00:34.961Z,1.65
2023-03-23T05:04:34.946Z,1.70
2023-03-23T05:08:34.897Z,1.54
2023-03-23T05:12:34.904Z,1.70
2023-03-23T05:16:34.875Z,1.54
2023-03-23T05:20:34.838Z,1.86
2023-03-23T05:24:34.823Z,1.92
2023-03-23T05:28:34.796Z,1.77
2023-03-23T05:32:34.716Z,1.60
2023-03-23T05:36:34.717Z,1.66
2023-03-23T05:40:34.661Z,2.26
2023-03-23T05:44:34.625Z,2.20
2023-03-23T05:48:34.544Z,1.98
2023-03-23T05:52:34.571Z,2.19
2023-03-23T05:56:34.512Z,1.57
2023-03-23T06:00:34.830Z,1.74
2023-03-23T06:04:34.452Z,1.88
2023-03-23T06:08:34.419Z,1.63
2023-03-23T06:12:34.392Z,1.53
2023-03-23T06:16:34.396Z,1.70
2023-03-23T06:20:34.325Z,1.94
2023-03-23T06:24:34.602Z,1.97
2023-03-23T06:28:34.626Z,1.58
2023-03-23T06:32:34.549Z,1.63
2023-03-23T06:36:34.434Z,3.61
2023-03-23T06:40:34.381Z,4.12
2023-03-23T06:44:34.350Z,3.70
2023-03-23T06:48:34.722Z,2.78
2023-03-23T06:52:49.154Z,3.50
2023-03-23T06:56:34.300Z,2.90
2023-03-23T07:00:34.253Z,2.52
2023-03-23T07:04:34.759Z,3.11
2023-03-23T07:08:34.234Z,2.48
2023-03-23T07:12:34.129Z,2.41
2023-03-23T07:16:34.088Z,2.36
2023-03-23T07:20:34.148Z,2.52
2023-03-23T07:24:34.087Z,2.69
2023-03-23T07:28:34.199Z,2.36
2023-03-23T07:32:34.019Z,2.29
2023-03-23T07:36:34.195Z,2.50
2023-03-23T07:40:33.874Z,3.03
2023-03-23T07:44:33.873Z,3.82
2023-03-23T07:48:33.832Z,2.99
2023-03-23T07:52:33.862Z,2.99
2023-03-23T07:56:33.767Z,2.79
2023-03-23T08:00:33.804Z,2.62
2023-03-23T08:04:33.689Z,2.55
2023-03-23T08:08:33.648Z,2.49
2023-03-23T08:12:33.832Z,2.65
2023-03-23T08:16:33.910Z,2.47
2023-03-23T08:20:34.055Z,2.28
2023-03-23T08:24:34.171Z,1.80
2023-03-23T08:28:34.825Z,1.85
2023-03-23T08:32:34.235Z,2.57
2023-03-23T08:36:34.788Z,3.71
2023-03-23T08:40:34.257Z,3.74
2023-03-23T08:44:34.199Z,3.16
2023-03-23T08:48:34.247Z,2.56
2023-03-23T08:52:34.181Z,3.25
2023-03-23T08:56:34.165Z,2.75
2023-03-23T09:00:34.161Z,2.63
2023-03-23T09:04:35.360Z,2.40
2023-03-23T09:08:35.672Z,2.52
2023-03-23T09:12:34.058Z,3.11
2023-03-23T09:16:34.735Z,3.09
2023-03-23T09:20:33.998Z,2.92
2023-03-23T09:24:42.836Z,2.48
2023-03-23T09:28:34.164Z,3.59
2023-03-23T09:32:33.876Z,3.09
2023-03-23T09:36:33.845Z,2.64
2023-03-23T09:40:33.842Z,2.71
2023-03-23T09:44:34.326Z,3.61
2023-03-23T09:48:33.793Z,3.16
2023-03-23T09:52:33.686Z,3.99
2023-03-23T09:56:33.889Z,4.57
2023-03-23T10:00:33.698Z,3.54
2023-03-23T10:04:33.653Z,3.42
2023-03-23T10:08:33.649Z,3.55
2023-03-23T10:12:33.677Z,3.69
2023-03-23T10:16:33.574Z,3.49
2023-03-23T10:20:33.860Z,3.71
2023-03-23T10:24:33.737Z,2.80
2023-03-23T10:28:33.759Z,3.31
2023-03-23T10:32:34.750Z,3.48
2023-03-23T10:36:33.744Z,3.77
2023-03-23T10:40:34.280Z,3.50
2023-03-23T10:44:33.975Z,2.70
2023-03-23T10:48:34.089Z,2.91
2023-03-23T10:52:34.255Z,2.39
2023-03-23T10:56:41.304Z,2.65
2023-03-23T11:00:35.412Z,2.86
2023-03-23T11:04:34.343Z,3.08
2023-03-23T11:08:34.330Z,2.44
2023-03-23T11:12:34.555Z,2.49
2023-03-23T11:16:34.805Z,2.31
2023-03-23T11:20:34.966Z,2.58
2023-03-23T11:24:35.173Z,2.42
2023-03-23T11:28:35.800Z,2.53
2023-03-23T11:32:35.629Z,2.41
2023-03-23T11:36:35.749Z,2.22
2023-03-23T11:40:35.984Z,2.67
2023-03-23T11:44:36.163Z,2.61
2023-03-23T11:48:36.349Z,3.47
2023-03-23T11:52:36.585Z,2.44
2023-03-23T11:56:36.747Z,3.33
2023-03-23T12:00:36.983Z,3.69
2023-03-23T12:04:37.158Z,3.07
2023-03-23T12:08:37.338Z,3.27
2023-03-23T12:12:37.768Z,3.59
2023-03-23T12:16:37.789Z,3.80
2023-03-23T12:20:42.931Z,2.78
2023-03-23T12:24:38.318Z,3.00
2023-03-23T12:28:38.047Z,4.68
2023-03-23T12:32:38.018Z,4.53
2023-03-23T12:36:38.060Z,3.47
2023-03-23T12:40:37.937Z,3.81
2023-03-23T12:44:39.370Z,3.59
2023-03-23T12:48:37.878Z,4.02
2023-03-23T12:52:37.920Z,3.53
2023-03-23T12:56:38.025Z,4.10
2023-03-23T13:00:38.190Z,3.69
2023-03-23T13:04:38.312Z,3.12
2023-03-23T13:08:38.418Z,3.36
2023-03-23T13:12:38.592Z,3.75
2023-03-23T13:16:38.691Z,3.19
2023-03-23T13:20:38.812Z,3.32
2023-03-23T13:24:38.952Z,3.62
2023-03-23T13:28:39.071Z,3.74
2023-03-23T13:32:43.758Z,3.24
2023-03-23T13:36:40.196Z,4.20
2023-03-23T13:40:39.162Z,4.10
2023-03-23T13:44:39.216Z,4.42
2023-03-23T13:48:39.420Z,3.68
2023-03-23T13:52:39.644Z,4.33
2023-03-23T13:56:39.876Z,4.40
2023-03-23T14:00:40.062Z,3.70
2023-03-23T14:04:40.236Z,3.38
2023-03-23T14:08:40.409Z,3.35
2023-03-23T14:12:40.598Z,3.24
2023-03-23T14:16:40.700Z,3.36
2023-03-23T14:20:40.853Z,3.00
2023-03-23T14:24:40.961Z,3.56
2023-03-23T14:28:41.119Z,3.13
2023-03-23T14:32:41.239Z,2.92
2023-03-23T14:36:41.413Z,2.79
2023-03-23T14:40:41.407Z,2.92
2023-03-23T14:44:41.570Z,3.10
2023-03-23T14:48:41.661Z,2.69
2023-03-23T14:52:41.782Z,2.83
2023-03-23T14:56:41.864Z,2.63
2023-03-23T15:00:42.045Z,2.69
2023-03-23T15:04:42.173Z,3.00
2023-03-23T15:08:42.341Z,3.14
2023-03-23T15:12:42.356Z,3.05
2023-03-23T15:16:42.568Z,2.95
2023-03-23T15:20:42.623Z,3.33
2023-03-23T15:24:42.821Z,3.26
2023-03-23T15:28:42.860Z,2.64
2023-03-23T15:32:43.020Z,3.04
2023-03-23T15:36:44.013Z,2.59
2023-03-23T15:40:43.162Z,3.00
2023-03-23T15:44:42.951Z,3.45
2023-03-23T15:48:43.009Z,2.84
2023-03-23T15:52:42.983Z,3.00
2023-03-23T15:56:43.165Z,3.25
2023-03-23T16:00:43.263Z,2.90
2023-03-23T16:04:45.716Z,3.32
2023-03-23T16:08:43.359Z,3.11
2023-03-23T16:12:44.271Z,3.13
2023-03-23T16:16:43.360Z,3.14
2023-03-23T16:20:43.235Z,2.73
2023-03-23T16:24:43.284Z,3.01
2023-03-23T16:28:43.416Z,2.88
2023-03-23T16:32:43.573Z,3.60
2023-03-23T16:36:44.390Z,2.80
2023-03-23T16:40:43.928Z,3.08
2023-03-23T16:44:44.076Z,2.91
2023-03-23T16:48:44.199Z,3.10
2023-03-23T16:52:46.141Z,3.39
2023-03-23T16:56:44.685Z,2.50
2023-03-23T17:00:44.730Z,3.25
2023-03-23T17:04:44.918Z,3.23
2023-03-23T17:08:45.095Z,3.10
2023-03-23T17:12:45.288Z,3.10
2023-03-23T17:16:45.463Z,3.06
2023-03-23T17:20:45.755Z,3.41
2023-03-23T17:24:45.911Z,3.10
2023-03-23T17:28:46.054Z,3.18
2023-03-23T17:32:46.275Z,2.66
2023-03-23T17:36:46.482Z,2.99
2023-03-23T17:40:46.708Z,2.95
2023-03-23T17:44:46.666Z,2.74
2023-03-23T17:48:46.645Z,3.31
2023-03-23T17:52:46.580Z,2.65
2023-03-23T17:56:46.962Z,2.67
2023-03-23T18:00:46.580Z,2.87
2023-03-23T18:04:46.482Z,3.02
2023-03-23T18:08:46.529Z,2.93
2023-03-23T18:12:46.420Z,2.91
2023-03-23T18:16:46.475Z,2.56
2023-03-23T18:20:46.404Z,3.14
2023-03-23T18:24:46.380Z,3.40
2023-03-23T18:28:46.349Z,3.33
2023-03-23T18:32:46.294Z,3.66
2023-03-23T18:36:46.240Z,3.73
2023-03-23T18:40:46.230Z,3.13
2023-03-23T18:44:46.204Z,3.30
2023-03-23T18:48:46.180Z,3.52
2023-03-23T18:52:46.100Z,3.38
2023-03-23T18:56:46.110Z,3.27
2023-03-23T19:00:46.064Z,3.71
2023-03-23T19:04:46.024Z,3.34
2023-03-23T19:08:45.967Z,2.60
2023-03-23T19:12:47.293Z,2.98
2023-03-23T19:16:45.974Z,4.82
2023-03-23T19:24:46.884Z,3.13
2023-03-23T19:29:23.361Z,3.35
2023-03-23T19:32:46.992Z,3.22
2023-03-23T19:36:53.729Z,3.24
2023-03-23T19:40:46.826Z,2.81
2023-03-23T19:44:45.855Z,3.14
2023-03-23T19:48:46.646Z,2.41
2023-03-23T19:52:45.756Z,2.77
2023-03-23T19:56:45.801Z,2.89
2023-03-23T20:00:45.930Z,2.29
2023-03-23T20:04:46.195Z,2.80
2023-03-23T20:08:45.607Z,3.24
2023-03-23T20:12:45.584Z,2.81
2023-03-23T20:16:45.835Z,2.48
2023-03-23T20:20:45.598Z,2.46
2023-03-23T20:24:45.664Z,3.12
2023-03-23T20:28:45.782Z,2.70
2023-03-23T20:32:45.564Z,2.60
2023-03-23T20:36:45.597Z,2.26
2023-03-23T20:40:45.597Z,2.55
2023-03-23T20:44:45.663Z,2.72
2023-03-23T20:48:45.622Z,2.60
2023-03-23T20:52:45.641Z,2.38
2023-03-23T20:56:45.647Z,2.64
2023-03-23T21:00:45.700Z,3.06
2023-03-23T21:04:45.661Z,2.66
2023-03-23T21:08:45.681Z,2.61
2023-03-23T21:12:45.667Z,3.24
2023-03-23T21:16:45.700Z,2.54
2023-03-23T21:20:45.968Z,2.55
2023-03-23T21:24:45.694Z,2.79
2023-03-23T21:28:45.828Z,2.91
2023-03-23T21:32:45.842Z,2.49
2023-03-23T21:36:45.828Z,3.01
2023-03-23T21:40:46.042Z,2.26
2023-03-23T21:44:46.001Z,2.96
2023-03-23T21:48:45.939Z,2.88
2023-03-23T21:52:46.151Z,2.34
2023-03-23T21:56:46.151Z,2.14
2023-03-23T22:00:46.267Z,2.71
2023-03-23T22:04:46.158Z,2.49
2023-03-23T22:08:46.254Z,2.78
2023-03-23T22:12:46.378Z,2.78
2023-03-23T22:16:46.321Z,2.45
2023-03-23T22:20:46.719Z,3.24
2023-03-23T22:24:46.499Z,2.37
2023-03-23T22:28:46.604Z,2.73
2023-03-23T22:32:46.702Z,2.69
2023-03-23T22:36:46.751Z,2.18
2023-03-23T22:40:46.948Z,2.49
2023-03-23T22:44:46.921Z,2.71
2023-03-23T22:48:46.986Z,2.42
2023-03-23T22:52:47.073Z,2.55
2023-03-23T22:56:47.231Z,2.88
2023-03-23T23:00:47.410Z,2.73
2023-03-23T23:04:47.347Z,2.38
2023-03-23T23:08:47.592Z,2.84
2023-03-23T23:12:47.745Z,2.64
2023-03-23T23:16:47.719Z,2.84
2023-03-23T23:20:47.862Z,2.29
2023-03-23T23:24:47.930Z,2.70
2023-03-23T23:28:48.062Z,2.69
2023-03-23T23:32:48.186Z,2.63
2023-03-23T23:36:48.289Z,2.30
2023-03-23T23:40:48.521Z,2.85
2023-03-23T23:44:48.505Z,3.14
2023-03-23T23:48:49.111Z,2.84
2023-03-23T23:52:48.817Z,2.82
2023-03-23T23:56:48.973Z,2.36
